sensor_id;sensor_type;location;lat;lon;timestamp;pressure;altitude;pressure_sealevel;temperature;humidity
70434;BME280;57876;47.792;12.960;2023-03-13T00:00:21;96601.63;;;15.71;41.31
70434;BME280;57876;47.792;12.960;2023-03-13T00:02:46;96608.22;;;15.70;41.52
70434;BME280;57876;47.792;12.960;2023-03-13T00:05:11;96590.22;;;15.69;41.59
70434;BME280;57876;47.792;12.960;2023-03-13T00:07:36;96587.00;;;15.67;41.42
70434;BME280;57876;47.792;12.960;2023-03-13T00:10:00;96595.69;;;15.69;41.66
70434;BME280;57876;47.792;12.960;2023-03-13T00:12:25;96587.63;;;15.63;41.76
70434;BME280;57876;47.792;12.960;2023-03-13T00:14:49;96590.84;;;15.66;41.52
70434;BME280;57876;47.792;12.960;2023-03-13T00:17:13;96585.41;;;15.66;41.57
70434;BME280;57876;47.792;12.960;2023-03-13T00:19:38;96570.97;;;15.65;41.69
70434;BME280;57876;47.792;12.960;2023-03-13T00:22:02;96581.56;;;15.67;41.48
70434;BME280;57876;47.792;12.960;2023-03-13T00:24:26;96577.22;;;15.66;41.46
70434;BME280;57876;47.792;12.960;2023-03-13T00:26:51;96572.56;;;15.66;41.45
70434;BME280;57876;47.792;12.960;2023-03-13T00:29:15;96578.00;;;15.66;41.44
70434;BME280;57876;47.792;12.960;2023-03-13T00:31:39;96572.09;;;15.64;41.73
70434;BME280;57876;47.792;12.960;2023-03-13T00:34:04;96569.03;;;15.66;41.60
70434;BME280;57876;47.792;12.960;2023-03-13T00:36:34;96547.88;;;15.62;41.72
70434;BME280;57876;47.792;12.960;2023-03-13T00:38:59;96560.38;;;15.63;41.44
70434;BME280;57876;47.792;12.960;2023-03-13T00:41:26;96551.75;;;15.61;41.62
70434;BME280;57876;47.792;12.960;2023-03-13T00:43:51;96562.00;;;15.64;41.45
70434;BME280;57876;47.792;12.960;2023-03-13T00:46:19;96556.06;;;15.62;41.41
70434;BME280;57876;47.792;12.960;2023-03-13T00:48:44;96544.34;;;15.62;41.45
70434;BME280;57876;47.792;12.960;2023-03-13T00:51:09;96547.88;;;15.62;41.53
70434;BME280;57876;47.792;12.960;2023-03-13T00:53:34;96543.22;;;15.63;41.66
70434;BME280;57876;47.792;12.960;2023-03-13T00:56:04;96533.44;;;15.62;41.69
70434;BME280;57876;47.792;12.960;2023-03-13T00:58:30;96535.03;;;15.63;41.19
70434;BME280;57876;47.792;12.960;2023-03-13T01:00:55;96532.47;;;15.58;41.57
70434;BME280;57876;47.792;12.960;2023-03-13T01:03:21;96520.00;;;15.57;41.40
70434;BME280;57876;47.792;12.960;2023-03-13T01:06:15;96521.41;;;15.63;41.11
70434;BME280;57876;47.792;12.960;2023-03-13T01:08:40;96513.56;;;15.61;41.72
70434;BME280;57876;47.792;12.960;2023-03-13T01:11:07;96517.41;;;15.60;41.48
70434;BME280;57876;47.792;12.960;2023-03-13T01:13:33;96519.81;;;15.62;41.59
70434;BME280;57876;47.792;12.960;2023-03-13T01:16:09;96513.09;;;15.59;41.25
70434;BME280;57876;47.792;12.960;2023-03-13T01:18:35;96511.97;;;15.60;41.40
70434;BME280;57876;47.792;12.960;2023-03-13T01:20:59;96502.19;;;15.59;41.29
70434;BME280;57876;47.792;12.960;2023-03-13T01:23:25;96498.66;;;15.59;41.51
70434;BME280;57876;47.792;12.960;2023-03-13T01:25:49;96495.47;;;15.57;41.45
70434;BME280;57876;47.792;12.960;2023-03-13T01:28:14;96483.75;;;15.56;41.18
70434;BME280;57876;47.792;12.960;2023-03-13T01:30:39;96479.09;;;15.57;41.45
70434;BME280;57876;47.792;12.960;2023-03-13T01:33:03;96477.16;;;15.57;41.45
70434;BME280;57876;47.792;12.960;2023-03-13T01:35:27;96479.91;;;15.57;41.45
70434;BME280;57876;47.792;12.960;2023-03-13T01:37:52;96469.78;;;15.58;41.01
70434;BME280;57876;47.792;12.960;2023-03-13T01:40:16;96458.75;;;15.54;41.33
70434;BME280;57876;47.792;12.960;2023-03-13T01:42:54;96457.28;;;15.57;41.31
70434;BME280;57876;47.792;12.960;2023-03-13T01:48:34;96463.88;;;15.56;41.31
70434;BME280;57876;47.792;12.960;2023-03-13T01:51:01;96456.50;;;15.56;41.51
70434;BME280;57876;47.792;12.960;2023-03-13T01:53:29;96454.09;;;15.55;41.46
70434;BME280;57876;47.792;12.960;2023-03-13T01:55:58;96450.56;;;15.54;41.67
70434;BME280;57876;47.792;12.960;2023-03-13T01:58:24;96446.25;;;15.53;41.16
70434;BME280;57876;47.792;12.960;2023-03-13T02:00:49;96454.88;;;15.55;41.32
70434;BME280;57876;47.792;12.960;2023-03-13T02:03:16;96442.38;;;15.54;41.27
70434;BME280;57876;47.792;12.960;2023-03-13T02:05:43;96450.09;;;15.52;41.19
70434;BME280;57876;47.792;12.960;2023-03-13T02:08:17;96440.81;;;15.53;41.63
70434;BME280;57876;47.792;12.960;2023-03-13T02:10:49;96445.91;;;15.55;41.30
70434;BME280;57876;47.792;12.960;2023-03-13T02:13:14;96440.81;;;15.53;41.48
70434;BME280;57876;47.792;12.960;2023-03-13T02:15:40;96438.53;;;15.55;41.09
70434;BME280;57876;47.792;12.960;2023-03-13T02:18:05;96432.63;;;15.53;41.53
70434;BME280;57876;47.792;12.960;2023-03-13T02:20:29;96440.81;;;15.53;41.55
70434;BME280;57876;47.792;12.960;2023-03-13T02:25:42;96440.47;;;15.55;41.49
70434;BME280;57876;47.792;12.960;2023-03-13T02:28:31;96424.44;;;15.53;41.37
70434;BME280;57876;47.792;12.960;2023-03-13T02:30:56;96423.97;;;15.51;41.23
70434;BME280;57876;47.792;12.960;2023-03-13T02:33:25;96420.75;;;15.49;41.46
70434;BME280;57876;47.792;12.960;2023-03-13T02:35:51;96418.03;;;15.49;41.42
70434;BME280;57876;47.792;12.960;2023-03-13T02:38:20;96429.91;;;15.53;41.44
70434;BME280;57876;47.792;12.960;2023-03-13T02:40:47;96423.97;;;15.51;41.14
70434;BME280;57876;47.792;12.960;2023-03-13T02:43:19;96423.16;;;15.51;41.19
70434;BME280;57876;47.792;12.960;2023-03-13T02:46:11;96417.38;;;15.52;41.36
70434;BME280;57876;47.792;12.960;2023-03-13T02:48:42;96426.69;;;15.51;41.05
70434;BME280;57876;47.792;12.960;2023-03-13T02:51:16;96422.34;;;15.50;41.42
70434;BME280;57876;47.792;12.960;2023-03-13T02:53:42;96419.63;;;15.50;41.57
70434;BME280;57876;47.792;12.960;2023-03-13T02:56:08;96411.44;;;15.50;41.29
70434;BME280;57876;47.792;12.960;2023-03-13T02:58:42;96408.72;;;15.50;41.54
70434;BME280;57876;47.792;12.960;2023-03-13T03:01:07;96417.25;;;15.49;41.41
70434;BME280;57876;47.792;12.960;2023-03-13T03:03:33;96412.59;;;15.49;41.13
70434;BME280;57876;47.792;12.960;2023-03-13T03:05:58;96409.38;;;15.47;41.62
70434;BME280;57876;47.792;12.960;2023-03-13T03:08:22;96419.63;;;15.50;41.46
70434;BME280;57876;47.792;12.960;2023-03-13T03:10:47;96407.78;;;15.46;41.12
70434;BME280;57876;47.792;12.960;2023-03-13T03:13:11;96410.66;;;15.50;41.25
70434;BME280;57876;47.792;12.960;2023-03-13T03:15:35;96405.84;;;15.47;41.28
70434;BME280;57876;47.792;12.960;2023-03-13T03:18:00;96418.03;;;15.49;41.51
70434;BME280;57876;47.792;12.960;2023-03-13T03:20:24;96413.38;;;15.50;41.21
70434;BME280;57876;47.792;12.960;2023-03-13T03:22:48;96414.16;;;15.50;41.38
70434;BME280;57876;47.792;12.960;2023-03-13T03:25:13;96427.00;;;15.50;41.29
70434;BME280;57876;47.792;12.960;2023-03-13T03:27:37;96428.94;;;15.49;41.16
70434;BME280;57876;47.792;12.960;2023-03-13T03:30:03;96421.41;;;15.46;41.12
70434;BME280;57876;47.792;12.960;2023-03-13T03:32:28;96414.81;;;15.47;41.53
70434;BME280;57876;47.792;12.960;2023-03-13T03:34:52;96418.03;;;15.49;41.29
70434;BME280;57876;47.792;12.960;2023-03-13T03:37:17;96413.25;;;15.46;41.31
70434;BME280;57876;47.792;12.960;2023-03-13T03:39:41;96405.84;;;15.47;41.34
70434;BME280;57876;47.792;12.960;2023-03-13T03:42:06;96409.84;;;15.49;41.26
70434;BME280;57876;47.792;12.960;2023-03-13T03:44:32;96406.66;;;15.47;41.23
70434;BME280;57876;47.792;12.960;2023-03-13T03:46:56;96407.78;;;15.46;41.38
70434;BME280;57876;47.792;12.960;2023-03-13T03:49:21;96403.44;;;15.45;41.25
70434;BME280;57876;47.792;12.960;2023-03-13T03:51:45;96407.78;;;15.46;41.23
70434;BME280;57876;47.792;12.960;2023-03-13T03:54:10;96414.81;;;15.47;41.10
70434;BME280;57876;47.792;12.960;2023-03-13T03:56:34;96415.97;;;15.46;41.46
70434;BME280;57876;47.792;12.960;2023-03-13T03:58:58;96406.16;;;15.45;41.59
70434;BME280;57876;47.792;12.960;2023-03-13T04:01:23;96397.06;;;15.41;41.51
70434;BME280;57876;47.792;12.960;2023-03-13T04:03:47;96403.66;;;15.40;41.35
70434;BME280;57876;47.792;12.960;2023-03-13T04:06:12;96407.97;;;15.41;41.18
70434;BME280;57876;47.792;12.960;2023-03-13T04:08:36;96412.44;;;15.46;41.12
70434;BME280;57876;47.792;12.960;2023-03-13T04:11:00;96414.03;;;15.47;41.35
70434;BME280;57876;47.792;12.960;2023-03-13T04:13:26;96419.78;;;15.45;41.11
70434;BME280;57876;47.792;12.960;2023-03-13T04:15:50;96420.94;;;15.44;41.19
70434;BME280;57876;47.792;12.960;2023-03-13T04:18:14;96417.41;;;15.44;41.28
70434;BME280;57876;47.792;12.960;2023-03-13T04:20:39;96433.41;;;15.45;41.32
70434;BME280;57876;47.792;12.960;2023-03-13T04:23:04;96429.09;;;15.44;41.23
70434;BME280;57876;47.792;12.960;2023-03-13T04:25:28;96430.69;;;15.45;41.53
70434;BME280;57876;47.792;12.960;2023-03-13T04:27:53;96427.19;;;15.45;41.17
70434;BME280;57876;47.792;12.960;2023-03-13T04:30:17;96425.91;;;15.42;41.47
70434;BME280;57876;47.792;12.960;2023-03-13T04:32:41;96433.75;;;15.44;41.17
70434;BME280;57876;47.792;12.960;2023-03-13T04:35:06;96425.44;;;15.40;41.44
70434;BME280;57876;47.792;12.960;2023-03-13T04:37:31;96427.53;;;15.43;41.03
70434;BME280;57876;47.792;12.960;2023-03-13T04:39:55;96423.66;;;15.44;41.16
70434;BME280;57876;47.792;12.960;2023-03-13T04:42:19;96423.66;;;15.44;41.09
70434;BME280;57876;47.792;12.960;2023-03-13T04:44:44;96420.94;;;15.44;41.32
70434;BME280;57876;47.792;12.960;2023-03-13T04:47:08;96420.13;;;15.44;41.01
70434;BME280;57876;47.792;12.960;2023-03-13T04:49:32;96418.56;;;15.43;41.24
70434;BME280;57876;47.792;12.960;2023-03-13T04:52:01;96416.28;;;15.45;41.17
70434;BME280;57876;47.792;12.960;2023-03-13T04:54:25;96424.00;;;15.43;41.33
70434;BME280;57876;47.792;12.960;2023-03-13T04:56:49;96407.66;;;15.43;41.10
70434;BME280;57876;47.792;12.960;2023-03-13T04:59:14;96412.28;;;15.42;41.11
70434;BME280;57876;47.792;12.960;2023-03-13T05:01:39;96408.44;;;15.43;41.39
70434;BME280;57876;47.792;12.960;2023-03-13T05:04:04;96413.91;;;15.43;41.08
70434;BME280;57876;47.792;12.960;2023-03-13T05:06:29;96403.00;;;15.43;41.11
70434;BME280;57876;47.792;12.960;2023-03-13T05:08:53;96413.09;;;15.43;41.12
70434;BME280;57876;47.792;12.960;2023-03-13T05:11:18;96412.28;;;15.42;41.08
70434;BME280;57876;47.792;12.960;2023-03-13T05:13:42;96414.56;;;15.40;41.26
70434;BME280;57876;47.792;12.960;2023-03-13T05:16:06;96402.81;;;15.39;41.36
70434;BME280;57876;47.792;12.960;2023-03-13T05:18:31;96393.84;;;15.39;41.58
70434;BME280;57876;47.792;12.960;2023-03-13T05:20:55;96394.81;;;15.43;41.11
70434;BME280;57876;47.792;12.960;2023-03-13T05:23:20;96399.47;;;15.43;41.01
70434;BME280;57876;47.792;12.960;2023-03-13T05:25:44;96387.47;;;15.35;40.99
70434;BME280;57876;47.792;12.960;2023-03-13T05:28:09;96387.31;;;15.40;41.48
70434;BME280;57876;47.792;12.960;2023-03-13T05:30:33;96387.13;;;15.36;41.14
70434;BME280;57876;47.792;12.960;2023-03-13T05:32:57;96387.75;;;15.42;41.20
70434;BME280;57876;47.792;12.960;2023-03-13T05:35:22;96377.19;;;15.40;40.96
70434;BME280;57876;47.792;12.960;2023-03-13T05:37:46;96378.78;;;15.41;41.02
70434;BME280;57876;47.792;12.960;2023-03-13T05:40:11;96373.50;;;15.36;41.29
70434;BME280;57876;47.792;12.960;2023-03-13T05:42:36;96374.78;;;15.39;41.07
70434;BME280;57876;47.792;12.960;2023-03-13T05:45:00;96374.13;;;15.42;40.94
70434;BME280;57876;47.792;12.960;2023-03-13T05:47:24;96378.00;;;15.41;41.20
70434;BME280;57876;47.792;12.960;2023-03-13T05:49:49;96369.16;;;15.44;41.49
70434;BME280;57876;47.792;12.960;2023-03-13T05:52:13;96364.84;;;15.43;41.07
70434;BME280;57876;47.792;12.960;2023-03-13T05:54:38;96358.59;;;15.43;41.07
70434;BME280;57876;47.792;12.960;2023-03-13T05:57:02;96351.66;;;15.45;41.17
70434;BME280;57876;47.792;12.960;2023-03-13T05:59:27;96361.47;;;15.46;41.22
70434;BME280;57876;47.792;12.960;2023-03-13T06:01:51;96354.38;;;15.45;41.27
70434;BME280;57876;47.792;12.960;2023-03-13T06:04:16;96351.66;;;15.45;41.38
70434;BME280;57876;47.792;12.960;2023-03-13T06:06:40;96341.25;;;15.47;41.29
70434;BME280;57876;47.792;12.960;2023-03-13T06:09:04;96347.19;;;15.49;41.63
70434;BME280;57876;47.792;12.960;2023-03-13T06:11:29;96334.22;;;15.46;41.41
70434;BME280;57876;47.792;12.960;2023-03-13T06:13:53;96337.84;;;15.50;41.59
70434;BME280;57876;47.792;12.960;2023-03-13T06:16:18;96334.69;;;15.48;41.13
70434;BME280;57876;47.792;12.960;2023-03-13T06:18:42;96334.81;;;15.52;41.15
70434;BME280;57876;47.792;12.960;2023-03-13T06:21:07;96339.00;;;15.49;41.39
70434;BME280;57876;47.792;12.960;2023-03-13T06:23:31;96331.78;;;15.53;41.44
70434;BME280;57876;47.792;12.960;2023-03-13T06:25:56;96331.31;;;15.51;41.55
70434;BME280;57876;47.792;12.960;2023-03-13T06:28:23;96327.13;;;15.54;41.24
70434;BME280;57876;47.792;12.960;2023-03-13T06:30:48;96322.97;;;15.48;41.43
70434;BME280;57876;47.792;12.960;2023-03-13T06:33:12;96317.19;;;15.49;41.45
70434;BME280;57876;47.792;12.960;2023-03-13T06:35:41;96324.41;;;15.54;41.48
70434;BME280;57876;47.792;12.960;2023-03-13T06:38:08;96324.41;;;15.54;41.19
70434;BME280;57876;47.792;12.960;2023-03-13T06:40:39;96318.66;;;15.47;41.24
70434;BME280;57876;47.792;12.960;2023-03-13T06:43:03;96313.34;;;15.50;41.37
70434;BME280;57876;47.792;12.960;2023-03-13T06:45:28;96293.94;;;15.52;41.30
70434;BME280;57876;47.792;12.960;2023-03-13T06:47:52;96299.38;;;15.52;41.48
70434;BME280;57876;47.792;12.960;2023-03-13T06:50:17;96304.53;;;15.53;41.54
70434;BME280;57876;47.792;12.960;2023-03-13T06:52:42;96315.56;;;15.57;41.58
70434;BME280;57876;47.792;12.960;2023-03-13T06:55:47;96298.13;;;15.49;41.31
70434;BME280;57876;47.792;12.960;2023-03-13T06:58:14;96314.75;;;15.56;41.32
70434;BME280;57876;47.792;12.960;2023-03-13T07:00:38;96300.66;;;15.54;41.28
70434;BME280;57876;47.792;12.960;2023-03-13T07:03:05;96300.19;;;15.52;41.49
70434;BME280;57876;47.792;12.960;2023-03-13T07:05:30;96294.72;;;15.52;41.71
70434;BME280;57876;47.792;12.960;2023-03-13T07:07:54;96279.50;;;15.51;41.31
70434;BME280;57876;47.792;12.960;2023-03-13T07:10:21;96275.66;;;15.52;41.62
70434;BME280;57876;47.792;12.960;2023-03-13T07:12:46;96282.72;;;15.53;41.35
70434;BME280;57876;47.792;12.960;2023-03-13T07:15:11;96277.41;;;15.57;41.33
70434;BME280;57876;47.792;12.960;2023-03-13T07:17:36;96284.44;;;15.58;41.45
70434;BME280;57876;47.792;12.960;2023-03-13T07:20:00;96271.16;;;15.56;41.54
70434;BME280;57876;47.792;12.960;2023-03-13T07:22:24;96264.09;;;15.55;41.54
70434;BME280;57876;47.792;12.960;2023-03-13T07:24:49;96265.03;;;15.59;41.53
70434;BME280;57876;47.792;12.960;2023-03-13T07:27:13;96275.16;;;15.59;41.41
70434;BME280;57876;47.792;12.960;2023-03-13T07:29:40;96257.19;;;15.58;41.40
70434;BME280;57876;47.792;12.960;2023-03-13T07:32:05;96259.78;;;15.54;41.85
70434;BME280;57876;47.792;12.960;2023-03-13T07:34:29;96258.97;;;15.54;41.40
70434;BME280;57876;47.792;12.960;2023-03-13T07:36:54;96259.09;;;15.57;41.62
70434;BME280;57876;47.792;12.960;2023-03-13T07:39:18;96232.66;;;15.58;41.54
70434;BME280;57876;47.792;12.960;2023-03-13T07:41:43;96228.47;;;15.60;41.40
70434;BME280;57876;47.792;12.960;2023-03-13T07:44:07;96227.97;;;15.58;41.61
70434;BME280;57876;47.792;12.960;2023-03-13T07:46:32;96228.47;;;15.60;41.34
70434;BME280;57876;47.792;12.960;2023-03-13T07:48:56;96235.06;;;15.59;41.41
70434;BME280;57876;47.792;12.960;2023-03-13T07:51:23;96232.31;;;15.59;41.73
70434;BME280;57876;47.792;12.960;2023-03-13T07:53:48;96236.63;;;15.60;41.40
70434;BME280;57876;47.792;12.960;2023-03-13T07:56:15;96247.22;;;15.62;41.43
70434;BME280;57876;47.792;12.960;2023-03-13T07:58:41;96237.44;;;15.61;41.41
70434;BME280;57876;47.792;12.960;2023-03-13T08:01:20;96246.28;;;15.58;41.66
70434;BME280;57876;47.792;12.960;2023-03-13T08:03:46;96253.47;;;15.62;41.59
70434;BME280;57876;47.792;12.960;2023-03-13T08:06:15;96238.56;;;15.60;41.34
70434;BME280;57876;47.792;12.960;2023-03-13T08:08:40;96227.00;;;15.63;41.44
70434;BME280;57876;47.792;12.960;2023-03-13T08:11:10;96230.06;;;15.61;41.62
70434;BME280;57876;47.792;12.960;2023-03-13T08:13:35;96232.94;;;15.65;41.79
70434;BME280;57876;47.792;12.960;2023-03-13T08:16:05;96240.97;;;15.61;41.49
70434;BME280;57876;47.792;12.960;2023-03-13T08:18:29;96241.09;;;15.65;41.45
70434;BME280;57876;47.792;12.960;2023-03-13T08:21:00;96264.50;;;15.66;41.80
70434;BME280;57876;47.792;12.960;2023-03-13T08:23:24;96264.50;;;15.66;41.62
70434;BME280;57876;47.792;12.960;2023-03-13T08:25:49;96249.16;;;15.61;41.89
70434;BME280;57876;47.792;12.960;2023-03-13T08:28:13;96246.88;;;15.63;41.81
70434;BME280;57876;47.792;12.960;2023-03-13T08:30:37;96254.25;;;15.63;41.50
70434;BME280;57876;47.792;12.960;2023-03-13T08:33:02;96261.47;;;15.68;41.62
70434;BME280;57876;47.792;12.960;2023-03-13T08:35:28;96271.41;;;15.63;41.70
70434;BME280;57876;47.792;12.960;2023-03-13T08:37:52;96264.50;;;15.66;41.64
70434;BME280;57876;47.792;12.960;2023-03-13T08:40:16;96258.59;;;15.64;41.61
70434;BME280;57876;47.792;12.960;2023-03-13T08:42:41;96275.88;;;15.68;41.84
70434;BME280;57876;47.792;12.960;2023-03-13T08:45:06;96257.31;;;15.70;41.84
70434;BME280;57876;47.792;12.960;2023-03-13T08:47:31;96256.50;;;15.70;41.85
70434;BME280;57876;47.792;12.960;2023-03-13T08:49:55;96245.59;;;15.70;41.87
70434;BME280;57876;47.792;12.960;2023-03-13T08:52:19;96216.41;;;15.70;41.50
70434;BME280;57876;47.792;12.960;2023-03-13T08:54:44;96210.16;;;15.70;41.61
70434;BME280;57876;47.792;12.960;2023-03-13T08:57:08;96216.41;;;15.70;41.53
70434;BME280;57876;47.792;12.960;2023-03-13T08:59:32;96216.41;;;15.70;41.71
70434;BME280;57876;47.792;12.960;2023-03-13T09:01:57;96216.41;;;15.70;41.71
70434;BME280;57876;47.792;12.960;2023-03-13T09:04:21;96201.19;;;15.69;41.75
70434;BME280;57876;47.792;12.960;2023-03-13T09:06:46;96188.16;;;15.66;41.57
70434;BME280;57876;47.792;12.960;2023-03-13T09:09:11;96191.88;;;15.70;41.66
70434;BME280;57876;47.792;12.960;2023-03-13T09:11:37;96205.63;;;15.74;41.66
70434;BME280;57876;47.792;12.960;2023-03-13T09:14:02;96206.78;;;15.73;41.69
70434;BME280;57876;47.792;12.960;2023-03-13T09:16:29;96193.13;;;15.73;41.58
70434;BME280;57876;47.792;12.960;2023-03-13T09:18:55;96198.59;;;15.73;41.71
70434;BME280;57876;47.792;12.960;2023-03-13T09:21:31;96205.63;;;15.74;41.63
70434;BME280;57876;47.792;12.960;2023-03-13T09:23:56;96181.88;;;15.74;41.48
70434;BME280;57876;47.792;12.960;2023-03-13T09:26:22;96164.72;;;15.74;41.57
70434;BME280;57876;47.792;12.960;2023-03-13T09:28:47;96157.34;;;15.74;41.85
70434;BME280;57876;47.792;12.960;2023-03-13T09:31:13;96169.75;;;15.72;41.69
70434;BME280;57876;47.792;12.960;2023-03-13T09:33:38;96162.00;;;15.74;41.52
70434;BME280;57876;47.792;12.960;2023-03-13T09:36:04;96145.66;;;15.74;41.88
70434;BME280;57876;47.792;12.960;2023-03-13T09:38:29;96150.78;;;15.75;41.63
70434;BME280;57876;47.792;12.960;2023-03-13T09:41:03;96142.59;;;15.75;41.91
70434;BME280;57876;47.792;12.960;2023-03-13T09:43:41;96122.94;;;15.70;41.82
70434;BME280;57876;47.792;12.960;2023-03-13T09:46:21;96124.50;;;15.71;41.47
70434;BME280;57876;47.792;12.960;2023-03-13T09:49:03;96130.75;;;15.71;41.70
70434;BME280;57876;47.792;12.960;2023-03-13T09:51:33;96133.84;;;15.70;41.58
70434;BME280;57876;47.792;12.960;2023-03-13T09:56:30;96144.19;;;15.76;41.71
70434;BME280;57876;47.792;12.960;2023-03-13T09:59:50;96159.75;;;15.76;41.79
70434;BME280;57876;47.792;12.960;2023-03-13T10:01:50;96147.25;;;15.75;41.92
70434;BME280;57876;47.792;12.960;2023-03-13T10:04:31;96149.31;;;15.78;41.86
70434;BME280;57876;47.792;12.960;2023-03-13T10:07:01;96147.69;;;15.77;41.66
70434;BME280;57876;47.792;12.960;2023-03-13T10:09:30;96145.31;;;15.75;41.81
70434;BME280;57876;47.792;12.960;2023-03-13T10:19:56;96151.56;;;15.76;41.72
70434;BME280;57876;47.792;12.960;2023-03-13T10:22:26;96160.22;;;15.78;41.77
70434;BME280;57876;47.792;12.960;2023-03-13T10:25:03;96176.59;;;15.78;41.59
70434;BME280;57876;47.792;12.960;2023-03-13T10:27:30;96155.56;;;15.78;41.47
70434;BME280;57876;47.792;12.960;2023-03-13T10:29:54;96141.94;;;15.78;41.73
70434;BME280;57876;47.792;12.960;2023-03-13T10:32:19;96134.53;;;15.79;41.63
70434;BME280;57876;47.792;12.960;2023-03-13T10:34:57;96139.19;;;15.78;41.61
70434;BME280;57876;47.792;12.960;2023-03-13T10:37:24;96130.22;;;15.78;41.62
70434;BME280;57876;47.792;12.960;2023-03-13T10:39:52;96117.72;;;15.77;41.74
70434;BME280;57876;47.792;12.960;2023-03-13T10:42:25;96112.25;;;15.77;41.47
70434;BME280;57876;47.792;12.960;2023-03-13T10:44:59;96096.38;;;15.79;41.17
70434;BME280;57876;47.792;12.960;2023-03-13T10:47:25;96085.56;;;15.70;41.54
70434;BME280;57876;47.792;12.960;2023-03-13T10:49:55;96088.19;;;15.79;41.91
70434;BME280;57876;47.792;12.960;2023-03-13T10:52:43;96089.81;;;15.80;42.02
70434;BME280;57876;47.792;12.960;2023-03-13T10:55:22;96091.72;;;15.79;41.55
70434;BME280;57876;47.792;12.960;2023-03-13T10:58:01;96093.63;;;15.79;41.71
70434;BME280;57876;47.792;12.960;2023-03-13T11:00:36;96087.06;;;15.80;41.60
70434;BME280;57876;47.792;12.960;2023-03-13T11:03:06;96075.34;;;15.79;41.73
70434;BME280;57876;47.792;12.960;2023-03-13T11:05:39;96052.41;;;15.80;41.62
70434;BME280;57876;47.792;12.960;2023-03-13T11:08:21;96040.25;;;15.78;41.57
70434;BME280;57876;47.792;12.960;2023-03-13T11:10:53;96044.56;;;15.79;41.50
70434;BME280;57876;47.792;12.960;2023-03-13T11:13:39;96042.63;;;15.79;41.46
70434;BME280;57876;47.792;12.960;2023-03-13T11:16:19;96034.34;;;15.76;41.59
70434;BME280;57876;47.792;12.960;2023-03-13T11:21:31;96027.31;;;15.75;41.91
70434;BME280;57876;47.792;12.960;2023-03-13T11:24:07;96018.44;;;15.78;41.44
70434;BME280;57876;47.792;12.960;2023-03-13T11:26:43;96016.72;;;15.73;41.62
70434;BME280;57876;47.792;12.960;2023-03-13T11:32:02;96010.59;;;15.76;41.83
70434;BME280;57876;47.792;12.960;2023-03-13T11:34:39;96004.81;;;15.78;41.81
70434;BME280;57876;47.792;12.960;2023-03-13T11:37:14;96003.66;;;15.79;41.63
70434;BME280;57876;47.792;12.960;2023-03-13T11:50:31;95976.75;;;15.77;41.70
70434;BME280;57876;47.792;12.960;2023-03-13T11:55:53;95961.19;;;15.78;41.72
70434;BME280;57876;47.792;12.960;2023-03-13T12:01:26;95954.94;;;15.77;41.95
70434;BME280;57876;47.792;12.960;2023-03-13T12:03:58;95950.28;;;15.78;41.73
70434;BME280;57876;47.792;12.960;2023-03-13T12:06:40;95940.63;;;15.80;41.66
70434;BME280;57876;47.792;12.960;2023-03-13T12:12:19;95927.31;;;15.79;42.09
70434;BME280;57876;47.792;12.960;2023-03-13T12:15:08;95926.22;;;15.80;41.72
70434;BME280;57876;47.792;12.960;2023-03-13T12:17:45;95924.28;;;15.80;41.50
70434;BME280;57876;47.792;12.960;2023-03-13T12:20:22;95910.97;;;15.79;41.36
70434;BME280;57876;47.792;12.960;2023-03-13T12:22:57;95908.13;;;15.75;41.53
70434;BME280;57876;47.792;12.960;2023-03-13T12:25:26;95904.41;;;15.80;41.54
70434;BME280;57876;47.792;12.960;2023-03-13T12:30:51;95883.69;;;15.79;41.73
70434;BME280;57876;47.792;12.960;2023-03-13T12:33:23;95888.47;;;15.82;41.34
70434;BME280;57876;47.792;12.960;2023-03-13T12:35:59;95888.03;;;15.80;41.63
70434;BME280;57876;47.792;12.960;2023-03-13T12:38:32;95866.22;;;15.80;42.02
70434;BME280;57876;47.792;12.960;2023-03-13T12:41:31;95860.78;;;15.80;41.56
70434;BME280;57876;47.792;12.960;2023-03-13T12:43:59;95861.22;;;15.82;41.68
70434;BME280;57876;47.792;12.960;2023-03-13T12:46:40;95865.09;;;15.81;41.67
70434;BME280;57876;47.792;12.960;2023-03-13T12:54:59;95846.47;;;15.83;41.67
70434;BME280;57876;47.792;12.960;2023-03-13T12:57:56;95837.13;;;15.84;41.87
70434;BME280;57876;47.792;12.960;2023-03-13T13:00:34;95839.84;;;15.84;41.99
70434;BME280;57876;47.792;12.960;2023-03-13T13:03:27;95823.84;;;15.82;42.02
70434;BME280;57876;47.792;12.960;2023-03-13T13:06:14;95817.16;;;15.80;41.72
70434;BME280;57876;47.792;12.960;2023-03-13T13:09:06;95820.78;;;15.84;41.93
70434;BME280;57876;47.792;12.960;2023-03-13T13:16:45;95811.34;;;15.81;42.17
70434;BME280;57876;47.792;12.960;2023-03-13T13:21:46;95810.66;;;15.84;41.87
70434;BME280;57876;47.792;12.960;2023-03-13T13:27:04;95808.75;;;15.85;41.72
70434;BME280;57876;47.792;12.960;2023-03-13T13:36:57;95796.22;;;15.84;41.81
70434;BME280;57876;47.792;12.960;2023-03-13T13:39:42;95792.38;;;15.85;42.07
70434;BME280;57876;47.792;12.960;2023-03-13T13:45:01;95796.22;;;15.84;41.75
70434;BME280;57876;47.792;12.960;2023-03-13T13:47:28;95803.28;;;15.85;41.99
70434;BME280;57876;47.792;12.960;2023-03-13T13:49:54;95789.53;;;15.81;41.77
70434;BME280;57876;47.792;12.960;2023-03-13T13:55:02;95792.81;;;15.87;41.92
70434;BME280;57876;47.792;12.960;2023-03-13T13:57:31;95785.31;;;15.84;41.93
70434;BME280;57876;47.792;12.960;2023-03-13T14:00:20;95787.03;;;15.89;41.84
70434;BME280;57876;47.792;12.960;2023-03-13T14:02:56;95776.03;;;15.85;41.96
70434;BME280;57876;47.792;12.960;2023-03-13T14:05:26;95780.66;;;15.84;41.68
70434;BME280;57876;47.792;12.960;2023-03-13T14:08:03;95773.72;;;15.87;42.19